Aeroporto :
LOGIN :

Iscrizione | Disclaimer

   EN    FR    IT 

 










Sommario :    VFR   VFR Marginale   IFR   IFR Intensivo   IFR Molto Intensivo
Visibilità : 
Base nubi : 
>= 8 km
>= 3000ft
5 / 8 km
1000 / 3000 ft
1500m / 5 km
500 / 1000 ft
800 / 1500m
200 / 500 ft
< 800m
< 200 ft
Simboli :   Temporali  Nebbia  Neve Forte  Precipitazioni Forti  Vento > 20 kt
SIGMETs :   Varie  Temporali  Ghiacco  Turbolenza  Onda orograficha  Ceneri Vulcaniche







- Altitudine del aeroporto : 32 ft
- Codice IATA : LKZ


EGUL - RAF Lakenheath

ULTIMO METAR :
  • 191456Z AUTO 02006KT 9999 FEW038 FEW055 18/10 A2980 RMK AO2 DZB43E53 SLP094 P0000 60000 T01750099 58004 $

METARs OBSOLETI :
  • 191443Z AUTO 05005KT 9999 -DZ FEW037 SCT060 17/10 A2980 RMK AO2 DZB43 SLP094 $
  • 191356Z AUTO 03004KT 9999 FEW110 17/10 A2980 RMK AO2 DZB15E25 SLP094 P0000 T01730099 $
  • 191325Z AUTO 05004KT 9999 SCT032 SCT100 17/10 A2981 RMK AO2 DZB15E25 SLP098 $
  • 191315Z AUTO 03005KT 9999 -DZ SCT032 17/11 A2981 RMK AO2 DZB15 SLP098 $
  • 191256Z AUTO 33004KT 9999 FEW031 FEW090 SCT110 SCT200 17/10 A2981 RMK AO2 SLP098 T01710102 $

Previsioni scadute.
Nessun NOTAM noto per questo aeroporto.



MetMap, La meteo Aeronautica in un colpo d'occhio ! - Copyright ORBIFLY Dicembre 2007 - Disclaimer

ORBIFLY MET'MAP TEAM :

Programmazione e sviluppo : Alexandra Zaïnal
Concezione e sviluppo : Baudouin d'Aumeries
Co-Programmazione e sviluppo : Marc-Olivier Méhu
Supporto tecnico e logistico : Manuel Goepfert
Aiuto per la traduzione : Arnaldo La Scala

Contatto : metmap@orbifly.com




FONTI E CREDITI :

   NOAA